Portada
METAR-TAF:

METAR-TAF

Aeropuertos :

Orange, Francia

latitud: 44-08N, longitud: 004-50E, altitud: 60 m

Observación

El informe se hizo hace 24 minutos, a las 22:30 UTC
Viento 2 kt del oeste
Temperatura 12°C
Humedad 94%
Presión 1017 hPa
Visibilidad 10 km o más
sin nubes por debajo de 1500 m y sin presencia de cumulonimbus.

METAR: LFMO 162230Z AUTO 28002KT CAVOK 12/11 Q1017 NOSIG

Hora: 00:54 (22:54 UTC)

Pronóstico

El informe se hizo hace 2 horas y 54 minutos, a las 20:00 UTC
Pronóstico válido del 16 a las 21 UTC al 17 a las 21 UTC
Viento 2 kt con dirección variable
Visibilidad 10 km o más
sin nubes por debajo de 1500 m y sin presencia de cumulonimbus.
Evolucionando progresivamente
del 17 a las 10 UTC al 17 a las 12 UTC
Viento 12 kt del sureste
Temporalmente
del 17 a las 12 UTC al 17 a las 15 UTC
Viento 15 kt del sureste con ráfagas de 25 kt

TAF: LFMO 162000Z 1621/1721 VRB02KT CAVOK BECMG 1710/1712 14012KT TEMPO 1712/1715 14015G25KT

Observaciones y pronósticos meteorológicos de más de 4000 aeropuertos (mensajes METAR y TAF).

Los puntos amarillos y rojos representan las estaciones disponibles.

Ponga el ratón en el punto deseado para ver el nombre de la estación.

Haga clic para ver las observaciones y los pronósticos meteorológicos.

Para cambiar el mapa : haga clic en los botones verdes con una cruz de color negro para hacer un zoom, en el botón verde con un guión para alejar o en las flechas verdes para mapas adyacentes.


METAR-TAF: